Time;durP1;ratioP1;P1;durP2;ratioP2;P2;SDS_P1;SDS_P2;PMS_P1;PMS_P2;Temp;Humidity;BMP_temperature;BMP_pressure;BME280_temperature;BME280_humidity;BME280_pressure;Samples;Min_cycle;Max_cycle;Signal;HPM_P1;HPM_P2
2022/12/31 00:00:15;;;;;;;46.58;18.80;;;;;;;10.14;65.66;100553.84;4472432;32;33819;-73
2022/12/31 00:02:43;;;;;;;40.40;17.10;;;;;;;10.84;63.04;100556.16;4488834;31;34944;-73
2022/12/31 00:05:11;;;;;;;43.42;18.62;;;;;;;10.80;62.71;100553.38;4492228;31;33491;-73
2022/12/31 00:07:38;;;;;;;43.70;18.02;;;;;;;9.92;65.74;100560.38;4485455;32;34669;-73
2022/12/31 00:10:05;;;;;;;41.63;19.05;;;;;;;10.47;64.19;100554.06;4485478;32;34592;-73
2022/12/31 00:12:32;;;;;;;41.28;17.40;;;;;;;10.20;65.03;100556.84;4487315;31;33839;-73
2022/12/31 00:15:02;;;;;;;44.40;17.55;;;;;;;9.98;66.35;100563.31;4493194;31;33599;-73
2022/12/31 00:17:30;;;;;;;58.53;19.37;;;;;;;10.04;66.26;100563.69;4485242;32;33911;-73
2022/12/31 00:19:57;;;;;;;47.08;18.27;;;;;;;9.31;68.82;100569.56;4484629;32;33579;-73
2022/12/31 00:22:25;;;;;;;42.33;18.40;;;;;;;9.39;68.03;100571.84;4485848;31;34186;-73
2022/12/31 00:24:53;;;;;;;45.25;17.17;;;;;;;9.28;68.92;100580.63;4486116;31;32018;-73
2022/12/31 00:27:21;;;;;;;41.05;16.35;;;;;;;10.15;65.71;100581.56;4484428;31;34056;-73
2022/12/31 00:29:48;;;;;;;46.85;19.50;;;;;;;9.71;67.42;100588.44;4488227;31;34793;-73
2022/12/31 00:32:16;;;;;;;44.50;16.45;;;;;;;9.67;68.35;100580.41;4472210;31;34869;-73
2022/12/31 00:34:43;;;;;;;44.17;17.30;;;;;;;9.73;67.46;100586.81;4487653;31;34213;-73
2022/12/31 00:37:11;;;;;;;42.17;15.95;;;;;;;10.25;65.99;100591.62;4477657;32;34364;-73
2022/12/31 00:39:38;;;;;;;36.88;16.65;;;;;;;9.94;66.18;100592.41;4485233;32;34521;-73
2022/12/31 00:42:06;;;;;;;36.25;14.38;;;;;;;9.89;66.65;100580.91;4484683;32;33857;-72
2022/12/31 00:44:33;;;;;;;33.60;14.68;;;;;;;9.13;69.13;100583.13;4496328;31;34569;-73
2022/12/31 00:47:01;;;;;;;39.78;15.07;;;;;;;9.36;68.78;100583.69;4484082;31;34460;-72
2022/12/31 00:49:28;;;;;;;36.60;14.98;;;;;;;9.88;67.22;100586.88;4480006;32;33633;-73
2022/12/31 00:51:56;;;;;;;34.63;14.65;;;;;;;9.52;68.08;100601.97;4485023;32;34655;-73
2022/12/31 00:54:24;;;;;;;32.65;14.73;;;;;;;10.16;65.63;100604.03;4494755;31;33300;-73
2022/12/31 00:56:51;;;;;;;36.85;14.65;;;;;;;10.52;64.22;100601.84;4485025;32;34320;-73
2022/12/31 00:59:19;;;;;;;32.85;14.23;;;;;;;10.46;64.34;100609.28;4485041;32;33511;-73
2022/12/31 01:01:48;;;;;;;36.53;14.85;;;;;;;10.16;65.62;100604.94;4484860;32;33939;-73
2022/12/31 01:04:19;;;;;;;33.38;13.85;;;;;;;10.07;66.54;100606.09;4477803;31;33974;-74
2022/12/31 01:06:47;;;;;;;36.50;14.80;;;;;;;9.37;68.60;100601.91;4474344;32;33839;-73
2022/12/31 01:09:16;;;;;;;38.55;14.48;;;;;;;10.02;65.99;100604.13;4483713;32;32386;-73
2022/12/31 01:11:43;;;;;;;39.58;15.77;;;;;;;9.94;66.36;100601.88;4483532;32;34825;-73
2022/12/31 01:14:15;;;;;;;45.05;16.48;;;;;;;9.85;66.53;100597.06;4495550;31;33099;-72
2022/12/31 01:16:48;;;;;;;38.95;15.55;;;;;;;9.30;68.68;100596.25;4495001;31;33893;-73
2022/12/31 01:19:21;;;;;;;40.85;15.20;;;;;;;9.90;66.32;100603.37;4493302;31;34606;-73
2022/12/31 01:21:50;;;;;;;40.42;16.20;;;;;;;10.18;64.71;100607.63;4487691;31;34705;-73
2022/12/31 01:24:18;;;;;;;40.47;15.75;;;;;;;10.34;65.13;100604.28;4492748;31;33777;-73
2022/12/31 01:26:46;;;;;;;37.40;14.95;;;;;;;10.51;64.55;100607.84;4484873;32;33999;-73
2022/12/31 01:29:15;;;;;;;36.60;15.52;;;;;;;10.14;65.95;100603.06;4485615;31;33970;-73
2022/12/31 01:31:43;;;;;;;39.22;14.93;;;;;;;10.70;63.39;100605.50;4487388;31;33960;-73
2022/12/31 01:34:10;;;;;;;39.90;14.68;;;;;;;11.07;62.97;100601.47;4484696;32;34305;-74
2022/12/31 01:36:38;;;;;;;39.33;15.70;;;;;;;9.93;65.84;100613.94;4484991;32;33905;-73
2022/12/31 01:39:07;;;;;;;39.72;15.38;;;;;;;10.76;64.22;100626.59;4484682;31;33876;-73
2022/12/31 01:41:38;;;;;;;36.28;15.15;;;;;;;10.74;63.70;100623.03;4488984;31;34771;-73
2022/12/31 01:44:12;;;;;;;40.03;15.10;;;;;;;10.57;63.77;100627.22;4484724;32;33519;-73
2022/12/31 01:46:51;;;;;;;38.88;14.48;;;;;;;10.33;64.60;100618.00;4484529;32;34226;-73
2022/12/31 01:49:41;;;;;;;36.45;13.73;;;;;;;10.74;63.93;100623.03;4486246;31;34425;-73
2022/12/31 01:52:16;;;;;;;34.88;14.30;;;;;;;11.17;61.65;100604.69;4493009;31;34163;-73
2022/12/31 01:54:49;;;;;;;35.58;14.45;;;;;;;10.90;62.44;100618.72;4484157;32;33982;-73
2022/12/31 01:57:17;;;;;;;33.90;13.13;;;;;;;10.91;62.40;100613.59;4484367;32;33780;-73
2022/12/31 01:59:45;;;;;;;40.50;14.68;;;;;;;10.46;63.68;100610.16;4488921;31;34538;-73
2022/12/31 02:02:13;;;;;;;37.05;13.68;;;;;;;11.32;61.75;100606.31;4469841;31;34942;-72
2022/12/31 02:04:41;;;;;;;38.42;14.30;;;;;;;10.83;62.68;100601.91;4483142;32;33458;-73
2022/12/31 02:07:09;;;;;;;34.10;13.43;;;;;;;10.12;64.96;100613.34;4484442;32;34826;-73
2022/12/31 02:09:38;;;;;;;40.50;14.80;;;;;;;10.17;65.07;100621.38;4485534;31;33950;-73
2022/12/31 02:12:07;;;;;;;39.42;13.65;;;;;;;10.85;62.87;100620.13;4477557;31;34705;-73
2022/12/31 02:14:43;;;;;;;38.90;14.02;;;;;;;10.14;65.22;100619.50;4484217;32;33480;-73
2022/12/31 02:17:30;;;;;;;40.00;14.90;;;;;;;10.76;63.66;100629.19;4484380;32;33557;-73
2022/12/31 02:20:15;;;;;;;35.13;13.43;;;;;;;10.65;63.81;100629.38;4482396;32;33785;-73
2022/12/31 02:23:11;;;;;;;37.03;13.90;;;;;;;10.84;62.92;100624.44;4484205;32;33944;-73
2022/12/31 02:26:09;;;;;;;36.58;15.45;;;;;;;11.35;61.09;100625.53;4466688;31;34377;-73
2022/12/31 02:28:52;;;;;;;39.58;13.82;;;;;;;11.15;61.23;100623.56;4479578;31;33757;-73
2022/12/31 02:31:36;;;;;;;36.40;14.07;;;;;;;11.76;60.05;100613.91;4475890;31;33030;-73
2022/12/31 02:34:19;;;;;;;37.22;14.80;;;;;;;11.68;59.84;100616.91;4481626;32;34210;-73
2022/12/31 02:36:49;;;;;;;39.45;15.15;;;;;;;11.46;60.56;100618.34;4481963;32;33728;-73
2022/12/31 02:39:17;;;;;;;36.92;14.77;;;;;;;10.56;63.28;100632.31;4486445;31;35754;-73
2022/12/31 02:41:49;;;;;;;34.50;13.30;;;;;;;11.65;60.24;100634.91;4481803;32;32178;-73
2022/12/31 02:44:25;;;;;;;36.00;13.90;;;;;;;11.25;61.00;100636.22;4484097;32;33911;-73
2022/12/31 02:47:15;;;;;;;43.50;15.25;;;;;;;11.59;60.19;100631.19;4494250;31;33578;-73
2022/12/31 02:50:01;;;;;;;35.40;14.50;;;;;;;11.52;60.37;100629.06;4489997;31;33600;-73
2022/12/31 02:52:47;;;;;;;42.55;15.23;;;;;;;11.30;61.02;100620.91;4469113;32;33949;-73
2022/12/31 02:55:34;;;;;;;43.92;16.37;;;;;;;11.34;60.84;100628.97;4484147;31;34183;-73
2022/12/31 02:58:07;;;;;;;47.70;16.85;;;;;;;11.43;60.75;100618.16;4471901;31;33266;-73
2022/12/31 03:03:27;;;;;;;41.45;16.65;;;;;;;11.54;60.55;100611.88;4484428;32;33732;-73
2022/12/31 03:05:55;;;;;;;42.25;16.60;;;;;;;12.06;59.04;100612.88;4491927;31;34664;-73
2022/12/31 03:08:24;;;;;;;41.13;16.90;;;;;;;11.57;60.10;100604.25;4484235;32;33649;-73
2022/12/31 03:10:52;;;;;;;42.88;16.50;;;;;;;11.36;60.24;100604.00;4484341;32;34541;-73
2022/12/31 03:13:19;;;;;;;45.55;17.95;;;;;;;11.70;59.85;100618.75;4489348;31;33602;-73
2022/12/31 03:15:47;;;;;;;44.97;16.70;;;;;;;11.58;59.67;100611.22;4494929;31;34480;-73
2022/12/31 03:18:16;;;;;;;39.90;15.20;;;;;;;11.34;60.53;100604.72;4476989;31;33467;-73
2022/12/31 03:23:38;;;;;;;43.72;17.35;;;;;;;10.46;64.07;100619.63;4489410;31;34096;-72
2022/12/31 03:26:09;;;;;;;42.90;16.02;;;;;;;11.06;62.11;100603.19;4497794;31;34006;-73
2022/12/31 03:28:39;;;;;;;44.22;16.85;;;;;;;11.39;61.10;100598.94;4495563;31;34361;-74
2022/12/31 03:31:07;;;;;;;37.63;15.85;;;;;;;11.12;61.29;100605.22;4499634;31;34635;-73
2022/12/31 03:33:37;;;;;;;40.05;16.25;;;;;;;10.86;62.38;100602.09;4499485;31;33773;-73
2022/12/31 03:36:13;;;;;;;44.38;16.70;;;;;;;10.94;62.30;100602.53;4486471;31;33183;-74
2022/12/31 03:38:41;;;;;;;41.67;17.12;;;;;;;10.20;64.69;100598.25;4493134;31;33850;-73
2022/12/31 03:41:09;;;;;;;42.60;17.33;;;;;;;10.42;64.07;100605.59;4495589;31;34584;-73
2022/12/31 03:43:37;;;;;;;47.90;17.85;;;;;;;10.07;65.48;100611.28;4498689;31;33872;-73
2022/12/31 03:46:05;;;;;;;46.10;17.52;;;;;;;10.61;64.07;100611.03;4486270;31;34951;-73
2022/12/31 03:48:32;;;;;;;37.97;15.70;;;;;;;10.66;63.54;100613.87;4486282;31;34442;-73
2022/12/31 03:51:00;;;;;;;47.17;16.92;;;;;;;11.30;61.24;100605.34;4493751;31;34631;-73
2022/12/31 03:53:27;;;;;;;40.70;15.48;;;;;;;11.14;61.72;100609.69;4497944;31;34675;-73
2022/12/31 03:55:55;;;;;;;40.25;15.57;;;;;;;11.33;61.14;100595.16;4493072;31;34099;-73
2022/12/31 03:58:22;;;;;;;36.47;16.75;;;;;;;11.84;59.62;100609.13;4488054;31;33526;-72
2022/12/31 04:00:50;;;;;;;41.55;16.05;;;;;;;11.30;61.42;100594.97;4494665;31;34052;-73
2022/12/31 04:03:18;;;;;;;39.42;16.40;;;;;;;11.70;60.07;100597.13;4485272;32;33681;-73
2022/12/31 04:05:52;;;;;;;37.67;15.40;;;;;;;11.25;61.37;100596.44;4489125;31;32631;-73
2022/12/31 04:08:19;;;;;;;37.58;14.98;;;;;;;11.19;61.95;100597.00;4472875;32;33410;-73
2022/12/31 04:10:47;;;;;;;35.90;15.23;;;;;;;11.04;62.15;100597.03;4489851;31;33658;-73
2022/12/31 04:13:15;;;;;;;36.20;14.93;;;;;;;11.29;61.47;100594.09;4485001;32;34763;-73
2022/12/31 04:15:43;;;;;;;40.80;15.75;;;;;;;12.03;59.16;100597.13;4475428;31;34531;-73
2022/12/31 04:18:11;;;;;;;37.92;15.25;;;;;;;12.69;57.04;100588.34;4485488;31;33750;-73
2022/12/31 04:20:39;;;;;;;43.05;15.73;;;;;;;12.34;57.66;100608.28;4485196;32;33904;-73
2022/12/31 04:23:06;;;;;;;43.17;15.82;;;;;;;12.38;57.72;100612.81;4483893;32;33997;-73
2022/12/31 04:25:34;;;;;;;37.67;16.12;;;;;;;12.07;58.05;100627.63;4489993;31;33818;-73
2022/12/31 04:28:01;;;;;;;37.28;15.10;;;;;;;12.54;57.08;100631.78;4486445;31;34526;-73
2022/12/31 04:30:29;;;;;;;38.17;15.43;;;;;;;12.95;55.80;100625.12;4495672;31;33327;-73
2022/12/31 04:32:56;;;;;;;42.70;15.85;;;;;;;12.58;56.59;100626.78;4484887;32;34093;-73
2022/12/31 04:35:24;;;;;;;37.72;16.37;;;;;;;12.52;56.70;100630.81;4487238;31;33950;-73
2022/12/31 04:37:51;;;;;;;39.80;16.37;;;;;;;11.38;60.27;100619.66;4499534;31;33225;-73
2022/12/31 04:40:19;;;;;;;38.75;15.88;;;;;;;12.24;58.26;100626.78;4489217;31;33957;-72
2022/12/31 04:42:46;;;;;;;41.28;15.10;;;;;;;12.12;58.29;100633.97;4494265;31;33961;-73
2022/12/31 04:45:14;;;;;;;38.42;16.17;;;;;;;11.87;59.02;100643.03;4489663;31;33744;-73
2022/12/31 04:47:42;;;;;;;44.03;16.08;;;;;;;11.71;59.85;100645.62;4484628;32;34246;-73
2022/12/31 04:50:10;;;;;;;40.95;16.80;;;;;;;11.80;59.26;100640.91;4484710;32;34753;-73
2022/12/31 04:52:38;;;;;;;41.25;15.90;;;;;;;12.33;57.83;100642.84;4484955;32;34519;-73
2022/12/31 04:55:09;;;;;;;44.50;16.85;;;;;;;12.07;58.51;100646.72;4488725;31;33754;-73
2022/12/31 04:57:37;;;;;;;41.67;15.70;;;;;;;12.18;58.65;100655.06;4487920;31;35631;-73
2022/12/31 05:00:06;;;;;;;46.37;16.62;;;;;;;12.41;57.61;100658.84;4486994;31;34409;-73
2022/12/31 05:02:34;;;;;;;43.70;17.05;;;;;;;12.32;57.88;100659.28;4495124;31;34364;-74
2022/12/31 05:05:02;;;;;;;45.95;18.25;;;;;;;12.23;58.13;100658.78;4483664;32;34702;-74
2022/12/31 05:07:29;;;;;;;43.87;16.48;;;;;;;12.17;58.52;100666.28;4490077;31;34663;-73
2022/12/31 05:09:57;;;;;;;42.72;17.37;;;;;;;12.03;58.99;100681.09;4486509;31;34115;-73
2022/12/31 05:12:25;;;;;;;41.65;16.98;;;;;;;11.81;59.43;100684.25;4494221;31;34553;-73
2022/12/31 05:14:52;;;;;;;44.15;17.70;;;;;;;11.88;59.85;100683.75;4484467;32;33928;-73
2022/12/31 05:17:20;;;;;;;50.30;17.85;;;;;;;12.26;58.49;100684.91;4490392;31;33714;-73
2022/12/31 05:19:48;;;;;;;47.80;16.90;;;;;;;12.13;58.84;100688.59;4487614;31;34128;-73
2022/12/31 05:22:30;;;;;;;48.90;17.70;;;;;;;12.39;58.02;100687.34;4484457;32;32762;-73
2022/12/31 05:24:59;;;;;;;36.17;16.48;;;;;;;12.91;56.67;100693.41;4484257;32;34020;-73
2022/12/31 05:27:29;;;;;;;42.20;16.48;;;;;;;12.83;56.82;100682.62;4491012;31;34589;-73
2022/12/31 05:29:58;;;;;;;45.60;16.30;;;;;;;12.55;57.50;100682.91;4472534;31;33804;-73
2022/12/31 05:32:26;;;;;;;42.22;17.25;;;;;;;12.88;56.62;100695.84;4484314;31;34552;-73
2022/12/31 05:34:53;;;;;;;46.17;17.30;;;;;;;12.69;57.13;100697.53;4484600;32;34292;-73
2022/12/31 05:37:21;;;;;;;47.67;18.50;;;;;;;12.04;59.08;100703.69;4489513;31;33697;-73
2022/12/31 05:39:48;;;;;;;45.53;16.75;;;;;;;12.43;57.74;100698.78;4495780;31;34533;-73
2022/12/31 05:42:16;;;;;;;40.33;16.95;;;;;;;12.46;57.86;100713.62;4471152;32;34001;-73
2022/12/31 05:44:43;;;;;;;43.87;16.50;;;;;;;12.89;56.72;100721.03;4484564;32;34963;-73
2022/12/31 05:47:11;;;;;;;41.13;16.70;;;;;;;12.63;57.36;100717.97;4487420;31;33284;-73
2022/12/31 05:49:39;;;;;;;42.03;16.27;;;;;;;12.80;56.97;100718.84;4484248;32;33373;-74
2022/12/31 05:52:06;;;;;;;42.08;16.05;;;;;;;13.18;55.96;100728.56;4491380;31;33960;-73
2022/12/31 05:54:35;;;;;;;42.75;16.42;;;;;;;13.15;55.75;100723.22;4477843;31;33873;-73
2022/12/31 05:57:03;;;;;;;36.40;16.25;;;;;;;12.70;57.01;100729.59;4476346;32;33546;-73
2022/12/31 05:59:31;;;;;;;45.55;18.02;;;;;;;12.91;56.36;100741.09;4484045;32;33514;-74
2022/12/31 06:01:59;;;;;;;41.72;16.60;;;;;;;13.02;55.86;100727.72;4492287;31;34544;-73
2022/12/31 06:04:27;;;;;;;41.13;15.88;;;;;;;12.54;57.30;100727.94;4490986;31;33983;-73
2022/12/31 06:06:55;;;;;;;42.85;17.12;;;;;;;12.92;56.34;100731.56;4492356;31;34379;-73
2022/12/31 06:09:22;;;;;;;43.33;16.73;;;;;;;13.06;55.76;100725.37;4496756;31;34059;-73
2022/12/31 06:11:50;;;;;;;40.28;15.98;;;;;;;12.98;56.01;100734.50;4486048;31;33891;-73
2022/12/31 06:14:18;;;;;;;43.30;16.95;;;;;;;12.89;56.33;100742.72;4483836;32;34066;-73
2022/12/31 06:16:45;;;;;;;43.72;15.70;;;;;;;12.47;57.24;100744.00;4482891;32;33773;-73
2022/12/31 06:19:13;;;;;;;45.85;17.45;;;;;;;12.57;57.24;100743.66;4489327;32;34822;-73
2022/12/31 06:21:40;;;;;;;46.25;17.27;;;;;;;12.91;56.23;100729.81;4489117;32;33992;-73
2022/12/31 06:24:08;;;;;;;45.03;16.65;;;;;;;12.83;56.32;100726.81;4488705;32;34141;-73
2022/12/31 06:26:35;;;;;;;49.53;18.15;;;;;;;12.73;56.70;100733.25;4488366;32;33244;-73
2022/12/31 06:29:03;;;;;;;45.47;17.92;;;;;;;12.15;58.37;100732.84;4490002;31;33677;-73
2022/12/31 06:31:31;;;;;;;46.90;17.58;;;;;;;11.93;59.06;100726.47;4488332;32;33883;-73
2022/12/31 06:33:59;;;;;;;45.58;18.98;;;;;;;11.76;59.64;100733.31;4497982;31;33868;-72
2022/12/31 06:36:26;;;;;;;43.58;17.83;;;;;;;11.51;60.62;100740.53;4488404;32;34770;-73
2022/12/31 06:38:54;;;;;;;47.47;17.55;;;;;;;11.55;60.71;100738.22;4493234;31;34181;-74
2022/12/31 06:41:22;;;;;;;53.05;18.17;;;;;;;11.93;59.53;100747.22;4497372;31;34779;-73
2022/12/31 06:43:49;;;;;;;41.58;16.05;;;;;;;12.53;57.67;100740.00;4493863;31;33691;-73
2022/12/31 06:46:17;;;;;;;31.80;14.13;;;;;;;13.53;54.38;100739.81;4500318;31;33387;-73
2022/12/31 06:48:45;;;;;;;31.00;14.50;;;;;;;14.38;51.15;100745.44;4494288;31;34718;-73
2022/12/31 06:51:16;;;;;;;34.45;16.48;;;;;;;12.47;55.44;100746.59;4502325;31;34590;-73
2022/12/31 06:53:45;;;;;;;36.42;15.50;;;;;;;12.73;55.20;100741.06;4502972;31;33679;-73
2022/12/31 06:56:24;;;;;;;33.05;14.30;;;;;;;13.27;53.55;100742.81;4497215;31;33462;-73
2022/12/31 06:59:01;;;;;;;29.98;13.88;;;;;;;12.47;55.39;100742.28;4485480;31;33845;-73
2022/12/31 07:01:52;;;;;;;40.67;13.15;;;;;;;13.36;53.12;100745.91;4496714;31;33760;-73
2022/12/31 07:04:48;;;;;;;34.83;14.20;;;;;;;13.37;53.03;100755.53;4473442;32;168579;-73
2022/12/31 07:07:52;;;;;;;31.67;12.65;;;;;;;13.81;51.87;100751.56;4481115;32;33483;-73
2022/12/31 07:10:35;;;;;;;34.00;14.02;;;;;;;13.47;52.69;100754.25;4486092;32;33960;-73
2022/12/31 07:13:02;;;;;;;29.48;13.68;;;;;;;13.15;53.79;100757.03;4479443;32;33987;-73
2022/12/31 07:15:52;;;;;;;32.20;13.70;;;;;;;13.05;54.09;100759.97;4488011;32;34850;-73
2022/12/31 07:18:45;;;;;;;32.53;13.38;;;;;;;12.99;54.27;100754.47;4471400;32;33237;-73
2022/12/31 07:21:15;;;;;;;34.28;14.05;;;;;;;12.61;55.22;100766.41;4480213;32;33445;-73
2022/12/31 07:23:43;;;;;;;35.85;14.48;;;;;;;11.45;58.74;100772.22;4488255;32;33727;-73
2022/12/31 07:26:19;;;;;;;44.50;16.98;;;;;;;10.51;62.45;100779.72;4487258;32;34171;-73
2022/12/31 07:28:50;;;;;;;39.28;17.05;;;;;;;12.31;57.39;100773.50;4486307;32;34548;-73
2022/12/31 07:31:56;;;;;;;42.15;16.55;;;;;;;12.36;56.91;100770.34;4483820;32;33029;-73
2022/12/31 07:34:45;;;;;;;43.78;16.35;;;;;;;12.48;57.01;100764.00;4478985;31;34250;-73
2022/12/31 07:37:29;;;;;;;50.05;18.08;;;;;;;12.35;57.62;100759.84;4491248;31;34263;-73
2022/12/31 07:40:09;;;;;;;53.20;19.45;;;;;;;12.50;57.36;100772.78;4493515;31;34637;-73
2022/12/31 07:42:49;;;;;;;49.65;18.55;;;;;;;12.33;58.05;100771.88;4485222;32;33492;-74
2022/12/31 07:45:22;;;;;;;47.10;16.95;;;;;;;12.51;57.30;100780.63;4483662;31;33701;-73
2022/12/31 07:47:50;;;;;;;49.85;18.33;;;;;;;12.66;57.44;100775.34;4480377;31;34138;-73
2022/12/31 07:50:18;;;;;;;44.28;16.90;;;;;;;12.71;57.57;100783.38;4481878;31;33181;-73
2022/12/31 07:52:46;;;;;;;43.90;16.17;;;;;;;12.38;58.39;100776.50;4483794;31;33591;-74
2022/12/31 07:55:13;;;;;;;42.95;16.73;;;;;;;12.35;58.46;100789.31;4485305;31;33779;-73
2022/12/31 07:57:52;;;;;;;47.67;16.92;;;;;;;12.57;58.04;100786.16;4484377;31;34732;-73
2022/12/31 08:00:20;;;;;;;43.33;17.27;;;;;;;12.64;57.91;100773.50;4487028;31;33492;-73
2022/12/31 08:03:02;;;;;;;44.00;16.48;;;;;;;12.67;57.68;100792.75;4490088;31;34162;-73
2022/12/31 08:05:50;;;;;;;44.13;16.95;;;;;;;11.14;63.21;100796.37;4484671;32;34851;-73
2022/12/31 08:08:23;;;;;;;48.42;17.33;;;;;;;10.76;64.51;100805.41;4481500;31;34198;-73
2022/12/31 08:11:18;;;;;;;47.47;17.58;;;;;;;12.22;59.95;100822.34;4490039;31;34181;-73
2022/12/31 08:13:46;;;;;;;50.60;17.62;;;;;;;11.80;61.49;100833.91;4484198;32;34043;-73
2022/12/31 08:16:14;;;;;;;51.67;18.95;;;;;;;12.61;58.80;100815.78;4497510;31;34636;-75
2022/12/31 08:18:41;;;;;;;50.12;17.95;;;;;;;13.48;56.22;100809.00;4493404;31;33938;-73
2022/12/31 08:21:13;;;;;;;49.10;18.00;;;;;;;12.83;57.83;100819.53;4480738;31;34407;-73
2022/12/31 08:23:50;;;;;;;54.92;19.52;;;;;;;13.36;56.33;100829.19;4495470;31;33538;-72
2022/12/31 08:26:54;;;;;;;47.35;18.20;;;;;;;13.22;56.60;100832.78;4482739;32;34734;-73
2022/12/31 08:29:31;;;;;;;43.72;17.12;;;;;;;13.42;56.29;100831.22;4484749;31;33904;-74
2022/12/31 08:32:24;;;;;;;47.13;18.23;;;;;;;13.72;55.35;100847.44;4489421;31;33748;-73
2022/12/31 08:34:55;;;;;;;51.97;18.30;;;;;;;13.24;56.45;100857.16;4482180;31;33680;-74
2022/12/31 08:37:36;;;;;;;47.70;17.05;;;;;;;12.50;58.35;100874.13;4487469;31;34506;-73
2022/12/31 08:40:21;;;;;;;41.33;18.62;;;;;;;12.74;58.12;100872.81;4476466;31;34152;-73
2022/12/31 08:42:55;;;;;;;45.53;17.62;;;;;;;13.73;55.33;100883.06;4490224;31;33585;-74
2022/12/31 08:45:36;;;;;;;42.92;17.90;;;;;;;13.44;56.07;100889.44;4493643;31;34936;-74
2022/12/31 08:48:23;;;;;;;47.78;17.50;;;;;;;14.17;53.90;100886.94;4496461;31;33910;-74
2022/12/31 08:50:51;;;;;;;49.63;17.33;;;;;;;13.67;55.36;100877.56;4493917;31;33982;-74
2022/12/31 08:53:19;;;;;;;47.05;17.30;;;;;;;13.47;56.11;100869.66;4487110;31;33676;-73
2022/12/31 08:55:49;;;;;;;48.17;17.30;;;;;;;13.63;55.67;100870.44;4486857;31;33809;-74
2022/12/31 08:58:35;;;;;;;41.78;17.65;;;;;;;12.62;58.37;100882.56;4473358;32;34940;-74
2022/12/31 09:01:03;;;;;;;48.25;18.58;;;;;;;11.35;62.95;100899.62;4485370;31;32993;-74
2022/12/31 09:04:14;;;;;;;53.47;20.73;;;;;;;12.24;60.48;100890.87;4480565;31;33634;-74
2022/12/31 09:06:48;;;;;;;54.30;20.10;;;;;;;10.75;66.04;100894.31;4466464;31;34687;-74
2022/12/31 09:09:46;;;;;;;52.42;22.67;;;;;;;9.97;67.98;100903.19;4482839;31;33929;-74
2022/12/31 09:12:27;;;;;;;58.80;22.87;;;;;;;9.81;69.56;100895.22;4486163;31;34966;-74
2022/12/31 09:15:14;;;;;;;55.65;22.55;;;;;;;11.05;65.74;100881.44;4489810;31;34359;-74
2022/12/31 09:17:47;;;;;;;54.08;20.60;;;;;;;10.28;69.41;100888.75;4480170;31;34502;-74
2022/12/31 09:20:29;;;;;;;53.80;21.35;;;;;;;10.32;68.95;100876.09;4495477;31;33663;-74
2022/12/31 09:23:11;;;;;;;58.33;21.97;;;;;;;13.40;57.58;100862.34;4486556;31;34241;-74
2022/12/31 09:26:16;;;;;;;74.30;30.37;;;;;;;13.24;56.52;100854.56;4483123;31;33596;-73
2022/12/31 09:29:00;;;;;;;64.07;24.40;;;;;;;14.24;53.66;100852.53;4495496;31;32475;-73
2022/12/31 09:31:37;;;;;;;48.37;20.83;;;;;;;12.66;58.10;100842.94;4490417;31;33897;-75
2022/12/31 09:34:18;;;;;;;45.85;18.52;;;;;;;12.53;59.04;100835.28;4492844;31;34128;-74
2022/12/31 09:36:50;;;;;;;50.92;19.20;;;;;;;12.98;58.19;100841.13;4488320;31;33640;-73
2022/12/31 09:39:47;;;;;;;48.45;19.50;;;;;;;12.35;59.99;100845.59;4471772;32;33826;-72
2022/12/31 09:42:42;;;;;;;46.42;18.17;;;;;;;12.30;60.22;100841.84;4487320;31;34462;-73
2022/12/31 09:45:58;;;;;;;47.08;19.08;;;;;;;12.33;60.22;100834.22;4495230;31;34036;-73
2022/12/31 09:48:39;;;;;;;45.55;18.02;;;;;;;11.96;61.61;100835.69;4458274;31;33625;-72
2022/12/31 09:51:21;;;;;;;45.50;18.67;;;;;;;10.85;66.18;100835.25;4489945;31;34877;-73
2022/12/31 09:54:14;;;;;;;41.58;17.25;;;;;;;11.18;65.54;100829.50;4475768;31;33595;-72
2022/12/31 09:56:50;;;;;;;38.78;17.87;;;;;;;10.89;66.75;100835.53;4494514;31;34586;-72
2022/12/31 09:59:56;;;;;;;47.25;19.35;;;;;;;10.71;67.27;100816.28;4480438;32;34425;-71
2022/12/31 10:02:42;;;;;;;49.67;20.58;;;;;;;11.07;65.95;100809.81;4472164;32;34546;-71
2022/12/31 10:05:25;;;;;;;41.47;18.23;;;;;;;12.07;63.00;100817.19;4483850;32;33394;-72
2022/12/31 10:07:59;;;;;;;50.88;19.50;;;;;;;11.74;63.89;100807.63;4483923;32;33874;-72
2022/12/31 10:10:38;;;;;;;46.85;20.70;;;;;;;11.90;63.27;100814.59;4483518;32;34435;-72
2022/12/31 10:13:27;;;;;;;48.65;20.65;;;;;;;10.90;67.31;100826.06;4483044;32;33878;-71
2022/12/31 10:16:14;;;;;;;49.38;21.87;;;;;;;11.56;65.33;100830.81;4483329;32;33672;-72
2022/12/31 10:19:12;;;;;;;52.05;21.60;;;;;;;11.61;65.13;100831.09;4476592;32;33836;-72
2022/12/31 10:21:58;;;;;;;44.70;20.05;;;;;;;11.51;65.96;100818.38;4476321;32;33133;-72
2022/12/31 10:24:49;;;;;;;38.80;18.95;;;;;;;12.28;63.46;100813.16;4479210;31;33701;-73
2022/12/31 10:27:35;;;;;;;39.67;18.77;;;;;;;12.77;61.50;100815.78;4482431;32;34808;-72
2022/12/31 10:30:14;;;;;;;44.30;18.20;;;;;;;14.12;57.39;100825.94;4489359;31;34198;-72
2022/12/31 10:32:43;;;;;;;47.50;20.05;;;;;;;14.06;57.17;100826.53;4473405;32;34554;-72
2022/12/31 10:35:42;;;;;;;43.63;20.48;;;;;;;14.83;54.81;100818.69;4482718;32;33970;-72
2022/12/31 10:38:21;;;;;;;46.65;20.02;;;;;;;14.67;55.17;100802.38;4483518;32;34744;-71
2022/12/31 10:41:07;;;;;;;44.33;21.52;;;;;;;14.80;55.03;100798.59;4481683;32;34128;-73
2022/12/31 10:44:03;;;;;;;49.40;21.77;;;;;;;14.93;54.56;100794.78;4483555;32;33454;-73
2022/12/31 10:46:49;;;;;;;44.60;22.30;;;;;;;15.99;51.08;100811.34;4466902;32;33993;-72
2022/12/31 10:49:38;;;;;;;41.33;20.08;;;;;;;15.31;52.75;100804.25;4483713;32;33428;-74
2022/12/31 10:52:40;;;;;;;49.42;21.60;;;;;;;15.14;53.43;100806.16;4469212;32;34083;-73
2022/12/31 10:55:08;;;;;;;46.28;21.00;;;;;;;15.73;52.02;100824.25;4472044;31;33375;-73
2022/12/31 10:57:54;;;;;;;44.88;21.15;;;;;;;14.91;53.84;100818.22;4488857;31;33333;-72
2022/12/31 11:00:37;;;;;;;45.60;21.48;;;;;;;16.01;51.56;100821.03;4490347;31;34558;-72
2022/12/31 11:03:39;;;;;;;43.55;20.58;;;;;;;16.33;50.53;100828.31;4483068;31;34788;-73
2022/12/31 11:07:02;;;;;;;43.75;22.70;;;;;;;13.99;55.59;100802.72;4484684;32;33659;-72
2022/12/31 11:09:51;;;;;;;47.85;24.23;;;;;;;14.60;55.33;100802.91;4417958;31;34063;-72
2022/12/31 11:12:50;;;;;;;50.20;25.45;;;;;;;15.00;54.16;100801.19;4472447;32;34019;-72
2022/12/31 11:15:20;;;;;;;46.00;23.05;;;;;;;14.44;55.60;100808.25;4485719;31;34599;-72
2022/12/31 11:17:51;;;;;;;51.05;23.92;;;;;;;14.47;55.67;100811.00;4495009;31;33767;-72
2022/12/31 11:20:37;;;;;;;45.80;24.27;;;;;;;15.16;53.46;100800.09;4471656;32;33265;-73
2022/12/31 11:23:32;;;;;;;51.47;25.02;;;;;;;13.31;59.39;100794.25;4477914;32;33687;-72
2022/12/31 11:26:17;;;;;;;49.53;25.45;;;;;;;15.36;53.72;100790.53;4485573;32;34708;-72
2022/12/31 11:28:49;;;;;;;53.40;25.23;;;;;;;13.92;56.57;100786.78;4484907;32;33750;-73
2022/12/31 11:31:57;;;;;;;49.85;25.33;;;;;;;14.68;55.38;100778.09;4479081;31;34675;-73
2022/12/31 11:34:47;;;;;;;57.95;29.55;;;;;;;16.57;50.23;100783.88;4473424;32;34066;-73
2022/12/31 11:37:40;;;;;;;51.33;24.40;;;;;;;15.91;51.20;100780.56;4485072;32;33944;-73
2022/12/31 11:40:27;;;;;;;55.25;25.62;;;;;;;14.60;54.47;100779.47;4474552;31;33187;-72
2022/12/31 11:43:20;;;;;;;50.03;25.37;;;;;;;14.51;55.28;100769.50;4488657;31;34763;-72
2022/12/31 11:46:12;;;;;;;60.90;29.52;;;;;;;12.14;62.43;100772.59;4483557;32;32990;-72
2022/12/31 11:49:11;;;;;;;55.08;27.42;;;;;;;14.28;57.15;100765.84;4473491;32;34865;-73
2022/12/31 11:52:04;;;;;;;51.63;25.35;;;;;;;15.11;54.59;100759.06;4494042;31;32219;-72